sensor_id;sensor_type;location;lat;lon;timestamp;P1;durP1;ratioP1;P2;durP2;ratioP2
57663;SDS011;43493;53.098;6.064;2024-01-30T00:01:42;29.77;;;23.70;;
57663;SDS011;43493;53.098;6.064;2024-01-30T00:04:08;27.00;;;23.40;;
57663;SDS011;43493;53.098;6.064;2024-01-30T00:06:34;28.00;;;23.27;;
57663;SDS011;43493;53.098;6.064;2024-01-30T00:08:59;29.47;;;22.17;;
57663;SDS011;43493;53.098;6.064;2024-01-30T00:11:25;28.00;;;23.83;;
57663;SDS011;43493;53.098;6.064;2024-01-30T00:13:54;27.37;;;23.20;;
57663;SDS011;43493;53.098;6.064;2024-01-30T00:16:23;32.93;;;24.93;;
57663;SDS011;43493;53.098;6.064;2024-01-30T00:18:50;33.10;;;24.67;;
57663;SDS011;43493;53.098;6.064;2024-01-30T00:21:16;29.93;;;23.60;;
57663;SDS011;43493;53.098;6.064;2024-01-30T00:23:43;28.90;;;22.57;;
57663;SDS011;43493;53.098;6.064;2024-01-30T00:26:08;29.07;;;23.30;;
57663;SDS011;43493;53.098;6.064;2024-01-30T00:28:34;30.77;;;23.67;;
57663;SDS011;43493;53.098;6.064;2024-01-30T00:31:00;27.90;;;22.47;;
57663;SDS011;43493;53.098;6.064;2024-01-30T00:33:26;30.87;;;22.47;;
57663;SDS011;43493;53.098;6.064;2024-01-30T00:35:52;30.10;;;24.07;;
57663;SDS011;43493;53.098;6.064;2024-01-30T00:38:17;29.53;;;23.83;;
57663;SDS011;43493;53.098;6.064;2024-01-30T00:40:43;29.50;;;23.83;;
57663;SDS011;43493;53.098;6.064;2024-01-30T00:43:09;31.57;;;22.33;;
57663;SDS011;43493;53.098;6.064;2024-01-30T00:45:35;29.27;;;23.47;;
57663;SDS011;43493;53.098;6.064;2024-01-30T00:48:00;29.57;;;23.07;;
57663;SDS011;43493;53.098;6.064;2024-01-30T00:50:26;30.03;;;23.37;;
57663;SDS011;43493;53.098;6.064;2024-01-30T00:52:52;31.63;;;23.97;;
57663;SDS011;43493;53.098;6.064;2024-01-30T00:55:17;28.73;;;23.10;;
57663;SDS011;43493;53.098;6.064;2024-01-30T00:57:43;33.70;;;23.53;;
57663;SDS011;43493;53.098;6.064;2024-01-30T01:00:09;28.93;;;23.20;;
57663;SDS011;43493;53.098;6.064;2024-01-30T01:02:35;27.30;;;22.27;;
57663;SDS011;43493;53.098;6.064;2024-01-30T01:05:01;28.03;;;22.47;;
57663;SDS011;43493;53.098;6.064;2024-01-30T01:07:28;28.57;;;21.50;;
57663;SDS011;43493;53.098;6.064;2024-01-30T01:09:54;29.57;;;23.33;;
57663;SDS011;43493;53.098;6.064;2024-01-30T01:12:19;33.87;;;24.43;;
57663;SDS011;43493;53.098;6.064;2024-01-30T01:14:45;29.30;;;23.03;;
57663;SDS011;43493;53.098;6.064;2024-01-30T01:17:11;27.60;;;22.50;;
57663;SDS011;43493;53.098;6.064;2024-01-30T01:19:37;30.00;;;23.98;;
57663;SDS011;43493;53.098;6.064;2024-01-30T01:22:03;30.03;;;23.17;;
57663;SDS011;43493;53.098;6.064;2024-01-30T01:24:30;29.73;;;22.87;;
57663;SDS011;43493;53.098;6.064;2024-01-30T01:26:57;30.73;;;23.97;;
57663;SDS011;43493;53.098;6.064;2024-01-30T01:29:23;29.13;;;21.77;;
57663;SDS011;43493;53.098;6.064;2024-01-30T01:31:56;32.90;;;22.60;;
57663;SDS011;43493;53.098;6.064;2024-01-30T01:34:23;27.77;;;21.50;;
57663;SDS011;43493;53.098;6.064;2024-01-30T01:36:50;29.63;;;22.63;;
57663;SDS011;43493;53.098;6.064;2024-01-30T01:39:16;31.63;;;23.07;;
57663;SDS011;43493;53.098;6.064;2024-01-30T01:41:42;31.47;;;23.20;;
57663;SDS011;43493;53.098;6.064;2024-01-30T01:44:08;28.20;;;24.07;;
57663;SDS011;43493;53.098;6.064;2024-01-30T01:46:35;29.67;;;22.90;;
57663;SDS011;43493;53.098;6.064;2024-01-30T01:49:02;29.83;;;22.27;;
57663;SDS011;43493;53.098;6.064;2024-01-30T01:51:29;29.23;;;22.13;;
57663;SDS011;43493;53.098;6.064;2024-01-30T01:53:57;28.27;;;22.43;;
57663;SDS011;43493;53.098;6.064;2024-01-30T01:56:26;26.53;;;21.70;;
57663;SDS011;43493;53.098;6.064;2024-01-30T01:58:54;33.07;;;23.63;;
57663;SDS011;43493;53.098;6.064;2024-01-30T02:01:20;28.10;;;22.20;;
57663;SDS011;43493;53.098;6.064;2024-01-30T02:03:46;28.80;;;21.67;;
57663;SDS011;43493;53.098;6.064;2024-01-30T02:06:15;29.13;;;22.08;;
57663;SDS011;43493;53.098;6.064;2024-01-30T02:08:41;28.77;;;21.50;;
57663;SDS011;43493;53.098;6.064;2024-01-30T02:11:07;28.60;;;22.67;;
57663;SDS011;43493;53.098;6.064;2024-01-30T02:13:35;32.50;;;23.90;;
57663;SDS011;43493;53.098;6.064;2024-01-30T02:16:01;30.23;;;22.00;;
57663;SDS011;43493;53.098;6.064;2024-01-30T02:18:26;29.40;;;22.23;;
57663;SDS011;43493;53.098;6.064;2024-01-30T02:20:53;33.60;;;23.03;;
57663;SDS011;43493;53.098;6.064;2024-01-30T02:23:21;29.88;;;23.50;;
57663;SDS011;43493;53.098;6.064;2024-01-30T02:25:50;29.00;;;21.53;;
57663;SDS011;43493;53.098;6.064;2024-01-30T02:28:18;26.87;;;21.13;;
57663;SDS011;43493;53.098;6.064;2024-01-30T02:30:45;27.73;;;22.60;;
57663;SDS011;43493;53.098;6.064;2024-01-30T02:33:11;28.13;;;21.25;;
57663;SDS011;43493;53.098;6.064;2024-01-30T02:35:37;24.73;;;21.97;;
57663;SDS011;43493;53.098;6.064;2024-01-30T02:38:03;33.30;;;22.87;;
57663;SDS011;43493;53.098;6.064;2024-01-30T02:40:29;29.53;;;23.27;;
57663;SDS011;43493;53.098;6.064;2024-01-30T02:42:55;28.00;;;22.90;;
57663;SDS011;43493;53.098;6.064;2024-01-30T02:45:21;29.67;;;22.40;;
57663;SDS011;43493;53.098;6.064;2024-01-30T02:47:47;28.60;;;21.70;;
57663;SDS011;43493;53.098;6.064;2024-01-30T02:50:13;29.73;;;22.83;;
57663;SDS011;43493;53.098;6.064;2024-01-30T02:52:40;27.43;;;21.57;;
57663;SDS011;43493;53.098;6.064;2024-01-30T02:55:06;28.70;;;21.70;;
57663;SDS011;43493;53.098;6.064;2024-01-30T02:57:32;29.67;;;21.57;;
57663;SDS011;43493;53.098;6.064;2024-01-30T02:59:58;29.00;;;22.13;;
57663;SDS011;43493;53.098;6.064;2024-01-30T03:02:23;27.57;;;22.63;;
57663;SDS011;43493;53.098;6.064;2024-01-30T03:04:49;27.00;;;21.07;;
57663;SDS011;43493;53.098;6.064;2024-01-30T03:07:15;27.17;;;22.53;;
57663;SDS011;43493;53.098;6.064;2024-01-30T03:09:43;26.67;;;22.13;;
57663;SDS011;43493;53.098;6.064;2024-01-30T03:12:09;32.77;;;20.97;;
57663;SDS011;43493;53.098;6.064;2024-01-30T03:14:35;27.23;;;21.80;;
57663;SDS011;43493;53.098;6.064;2024-01-30T03:17:01;26.20;;;21.10;;
57663;SDS011;43493;53.098;6.064;2024-01-30T03:19:27;30.23;;;22.50;;
57663;SDS011;43493;53.098;6.064;2024-01-30T03:21:53;27.03;;;20.93;;
57663;SDS011;43493;53.098;6.064;2024-01-30T03:24:19;28.70;;;22.03;;
57663;SDS011;43493;53.098;6.064;2024-01-30T03:26:44;24.10;;;21.07;;
57663;SDS011;43493;53.098;6.064;2024-01-30T03:29:10;28.83;;;21.93;;
57663;SDS011;43493;53.098;6.064;2024-01-30T03:31:36;26.23;;;20.83;;
57663;SDS011;43493;53.098;6.064;2024-01-30T03:34:01;28.00;;;21.17;;
57663;SDS011;43493;53.098;6.064;2024-01-30T03:36:27;28.37;;;19.77;;
57663;SDS011;43493;53.098;6.064;2024-01-30T03:38:53;26.33;;;21.73;;
57663;SDS011;43493;53.098;6.064;2024-01-30T03:41:19;27.63;;;21.70;;
57663;SDS011;43493;53.098;6.064;2024-01-30T03:43:46;28.07;;;20.80;;
57663;SDS011;43493;53.098;6.064;2024-01-30T03:46:12;25.60;;;20.53;;
57663;SDS011;43493;53.098;6.064;2024-01-30T03:48:38;27.50;;;21.33;;
57663;SDS011;43493;53.098;6.064;2024-01-30T03:51:04;28.27;;;20.77;;
57663;SDS011;43493;53.098;6.064;2024-01-30T03:53:30;28.27;;;20.67;;
57663;SDS011;43493;53.098;6.064;2024-01-30T03:55:56;26.13;;;20.17;;
57663;SDS011;43493;53.098;6.064;2024-01-30T03:58:22;25.20;;;20.53;;
57663;SDS011;43493;53.098;6.064;2024-01-30T04:00:48;27.83;;;20.40;;
57663;SDS011;43493;53.098;6.064;2024-01-30T04:03:16;26.07;;;20.33;;
57663;SDS011;43493;53.098;6.064;2024-01-30T04:05:42;26.70;;;20.40;;
57663;SDS011;43493;53.098;6.064;2024-01-30T04:08:08;24.30;;;20.90;;
57663;SDS011;43493;53.098;6.064;2024-01-30T04:10:34;24.67;;;19.50;;
57663;SDS011;43493;53.098;6.064;2024-01-30T04:13:00;26.87;;;19.00;;
57663;SDS011;43493;53.098;6.064;2024-01-30T04:15:26;26.83;;;19.97;;
57663;SDS011;43493;53.098;6.064;2024-01-30T04:17:53;26.17;;;20.50;;
57663;SDS011;43493;53.098;6.064;2024-01-30T04:20:18;24.30;;;19.63;;
57663;SDS011;43493;53.098;6.064;2024-01-30T04:22:44;26.87;;;19.63;;
57663;SDS011;43493;53.098;6.064;2024-01-30T04:25:13;26.53;;;19.27;;
57663;SDS011;43493;53.098;6.064;2024-01-30T04:27:39;22.23;;;18.53;;
57663;SDS011;43493;53.098;6.064;2024-01-30T04:30:05;23.90;;;18.43;;
57663;SDS011;43493;53.098;6.064;2024-01-30T04:32:31;21.87;;;18.57;;
57663;SDS011;43493;53.098;6.064;2024-01-30T04:34:58;28.50;;;18.10;;
57663;SDS011;43493;53.098;6.064;2024-01-30T04:37:23;23.67;;;17.97;;
57663;SDS011;43493;53.098;6.064;2024-01-30T04:39:50;22.63;;;18.37;;
57663;SDS011;43493;53.098;6.064;2024-01-30T04:42:16;22.80;;;17.57;;
57663;SDS011;43493;53.098;6.064;2024-01-30T04:44:42;25.60;;;17.53;;
57663;SDS011;43493;53.098;6.064;2024-01-30T04:47:08;25.10;;;17.70;;
57663;SDS011;43493;53.098;6.064;2024-01-30T04:49:36;21.53;;;17.23;;
57663;SDS011;43493;53.098;6.064;2024-01-30T04:52:02;25.50;;;17.87;;
57663;SDS011;43493;53.098;6.064;2024-01-30T04:54:28;24.30;;;17.80;;
57663;SDS011;43493;53.098;6.064;2024-01-30T04:56:53;20.53;;;16.43;;
57663;SDS011;43493;53.098;6.064;2024-01-30T04:59:19;23.07;;;18.47;;
57663;SDS011;43493;53.098;6.064;2024-01-30T05:01:44;25.10;;;16.73;;
57663;SDS011;43493;53.098;6.064;2024-01-30T05:04:10;23.13;;;16.60;;
57663;SDS011;43493;53.098;6.064;2024-01-30T05:06:36;20.93;;;16.00;;
57663;SDS011;43493;53.098;6.064;2024-01-30T05:09:02;22.97;;;16.43;;
57663;SDS011;43493;53.098;6.064;2024-01-30T05:11:29;21.33;;;16.07;;
57663;SDS011;43493;53.098;6.064;2024-01-30T05:13:55;22.00;;;15.80;;
57663;SDS011;43493;53.098;6.064;2024-01-30T05:16:21;20.77;;;15.40;;
57663;SDS011;43493;53.098;6.064;2024-01-30T05:18:47;20.83;;;16.33;;
57663;SDS011;43493;53.098;6.064;2024-01-30T05:21:12;19.67;;;15.87;;
57663;SDS011;43493;53.098;6.064;2024-01-30T05:23:38;23.37;;;16.10;;
57663;SDS011;43493;53.098;6.064;2024-01-30T05:26:05;20.97;;;15.70;;
57663;SDS011;43493;53.098;6.064;2024-01-30T05:28:31;21.33;;;16.37;;
57663;SDS011;43493;53.098;6.064;2024-01-30T05:30:57;21.07;;;15.60;;
57663;SDS011;43493;53.098;6.064;2024-01-30T05:33:23;18.90;;;15.73;;
57663;SDS011;43493;53.098;6.064;2024-01-30T05:35:49;20.97;;;15.40;;
57663;SDS011;43493;53.098;6.064;2024-01-30T05:38:18;20.17;;;15.57;;
57663;SDS011;43493;53.098;6.064;2024-01-30T05:40:43;18.57;;;15.30;;
57663;SDS011;43493;53.098;6.064;2024-01-30T05:43:09;20.93;;;16.13;;
57663;SDS011;43493;53.098;6.064;2024-01-30T05:45:34;21.90;;;16.20;;
57663;SDS011;43493;53.098;6.064;2024-01-30T05:48:01;19.27;;;15.27;;
57663;SDS011;43493;53.098;6.064;2024-01-30T05:50:26;22.03;;;16.50;;
57663;SDS011;43493;53.098;6.064;2024-01-30T05:52:52;20.33;;;15.40;;
57663;SDS011;43493;53.098;6.064;2024-01-30T05:55:18;20.47;;;15.90;;
57663;SDS011;43493;53.098;6.064;2024-01-30T05:57:44;22.47;;;15.97;;
57663;SDS011;43493;53.098;6.064;2024-01-30T06:00:10;22.87;;;16.33;;
57663;SDS011;43493;53.098;6.064;2024-01-30T06:02:36;24.40;;;16.80;;
57663;SDS011;43493;53.098;6.064;2024-01-30T06:05:01;22.23;;;16.00;;
57663;SDS011;43493;53.098;6.064;2024-01-30T06:07:27;22.17;;;15.43;;
57663;SDS011;43493;53.098;6.064;2024-01-30T06:09:53;21.20;;;15.73;;
57663;SDS011;43493;53.098;6.064;2024-01-30T06:12:19;21.77;;;15.77;;
57663;SDS011;43493;53.098;6.064;2024-01-30T06:14:44;20.50;;;16.00;;
57663;SDS011;43493;53.098;6.064;2024-01-30T06:17:10;21.03;;;16.50;;
57663;SDS011;43493;53.098;6.064;2024-01-30T06:19:37;21.87;;;16.70;;
57663;SDS011;43493;53.098;6.064;2024-01-30T06:22:04;22.13;;;16.03;;
57663;SDS011;43493;53.098;6.064;2024-01-30T06:24:30;19.50;;;15.07;;
57663;SDS011;43493;53.098;6.064;2024-01-30T06:26:56;22.70;;;16.77;;
57663;SDS011;43493;53.098;6.064;2024-01-30T06:29:21;18.07;;;14.97;;
57663;SDS011;43493;53.098;6.064;2024-01-30T06:31:49;19.93;;;16.07;;
57663;SDS011;43493;53.098;6.064;2024-01-30T06:34:15;24.87;;;15.83;;
57663;SDS011;43493;53.098;6.064;2024-01-30T06:36:41;23.30;;;16.57;;
57663;SDS011;43493;53.098;6.064;2024-01-30T06:39:07;19.00;;;15.20;;
57663;SDS011;43493;53.098;6.064;2024-01-30T06:41:33;19.97;;;14.90;;
57663;SDS011;43493;53.098;6.064;2024-01-30T06:43:59;23.70;;;16.13;;
57663;SDS011;43493;53.098;6.064;2024-01-30T06:46:27;19.03;;;15.77;;
57663;SDS011;43493;53.098;6.064;2024-01-30T06:48:52;22.37;;;16.47;;
57663;SDS011;43493;53.098;6.064;2024-01-30T06:51:18;20.47;;;15.47;;
57663;SDS011;43493;53.098;6.064;2024-01-30T06:53:44;22.30;;;14.93;;
57663;SDS011;43493;53.098;6.064;2024-01-30T06:56:10;18.13;;;15.47;;
57663;SDS011;43493;53.098;6.064;2024-01-30T06:58:36;18.43;;;15.10;;
57663;SDS011;43493;53.098;6.064;2024-01-30T07:01:01;19.53;;;15.03;;
57663;SDS011;43493;53.098;6.064;2024-01-30T07:03:27;22.00;;;15.93;;
57663;SDS011;43493;53.098;6.064;2024-01-30T07:05:53;21.23;;;15.10;;
57663;SDS011;43493;53.098;6.064;2024-01-30T07:08:19;22.43;;;16.03;;
57663;SDS011;43493;53.098;6.064;2024-01-30T07:10:44;22.07;;;15.37;;
57663;SDS011;43493;53.098;6.064;2024-01-30T07:13:13;20.23;;;15.07;;
57663;SDS011;43493;53.098;6.064;2024-01-30T07:15:41;19.90;;;14.97;;
57663;SDS011;43493;53.098;6.064;2024-01-30T07:18:07;16.70;;;13.27;;
57663;SDS011;43493;53.098;6.064;2024-01-30T07:20:34;19.80;;;14.80;;
57663;SDS011;43493;53.098;6.064;2024-01-30T07:23:00;15.87;;;13.57;;
57663;SDS011;43493;53.098;6.064;2024-01-30T07:25:27;21.03;;;15.07;;
57663;SDS011;43493;53.098;6.064;2024-01-30T07:27:54;18.97;;;15.07;;
57663;SDS011;43493;53.098;6.064;2024-01-30T07:30:20;19.63;;;14.40;;
57663;SDS011;43493;53.098;6.064;2024-01-30T07:32:46;21.63;;;15.23;;
57663;SDS011;43493;53.098;6.064;2024-01-30T07:35:13;18.73;;;14.53;;
57663;SDS011;43493;53.098;6.064;2024-01-30T07:37:39;22.37;;;14.07;;
57663;SDS011;43493;53.098;6.064;2024-01-30T07:40:05;18.10;;;14.03;;
57663;SDS011;43493;53.098;6.064;2024-01-30T07:42:31;19.63;;;14.73;;
57663;SDS011;43493;53.098;6.064;2024-01-30T07:44:58;25.07;;;14.67;;
57663;SDS011;43493;53.098;6.064;2024-01-30T07:47:24;17.73;;;14.37;;
57663;SDS011;43493;53.098;6.064;2024-01-30T07:49:49;21.97;;;14.70;;
57663;SDS011;43493;53.098;6.064;2024-01-30T07:52:16;20.33;;;14.30;;
57663;SDS011;43493;53.098;6.064;2024-01-30T07:54:48;18.17;;;14.43;;
57663;SDS011;43493;53.098;6.064;2024-01-30T07:57:14;21.40;;;14.57;;
57663;SDS011;43493;53.098;6.064;2024-01-30T07:59:41;18.10;;;14.57;;
57663;SDS011;43493;53.098;6.064;2024-01-30T08:02:09;20.03;;;14.00;;
57663;SDS011;43493;53.098;6.064;2024-01-30T08:04:35;21.30;;;14.03;;
57663;SDS011;43493;53.098;6.064;2024-01-30T08:07:00;20.30;;;14.50;;
57663;SDS011;43493;53.098;6.064;2024-01-30T08:09:26;19.93;;;13.63;;
57663;SDS011;43493;53.098;6.064;2024-01-30T08:11:52;18.80;;;14.07;;
57663;SDS011;43493;53.098;6.064;2024-01-30T08:14:18;21.43;;;14.47;;
57663;SDS011;43493;53.098;6.064;2024-01-30T08:16:44;17.53;;;13.70;;
57663;SDS011;43493;53.098;6.064;2024-01-30T08:19:09;18.30;;;14.10;;
57663;SDS011;43493;53.098;6.064;2024-01-30T08:21:35;18.30;;;13.63;;
57663;SDS011;43493;53.098;6.064;2024-01-30T08:24:04;18.30;;;13.47;;
57663;SDS011;43493;53.098;6.064;2024-01-30T08:26:30;18.87;;;13.87;;
57663;SDS011;43493;53.098;6.064;2024-01-30T08:28:57;18.77;;;13.53;;
57663;SDS011;43493;53.098;6.064;2024-01-30T08:31:23;17.77;;;13.73;;
57663;SDS011;43493;53.098;6.064;2024-01-30T08:33:48;18.10;;;14.30;;
57663;SDS011;43493;53.098;6.064;2024-01-30T08:36:15;17.13;;;13.53;;
57663;SDS011;43493;53.098;6.064;2024-01-30T08:38:41;18.70;;;13.37;;
57663;SDS011;43493;53.098;6.064;2024-01-30T08:41:07;18.10;;;13.60;;
57663;SDS011;43493;53.098;6.064;2024-01-30T08:43:33;17.70;;;13.40;;
57663;SDS011;43493;53.098;6.064;2024-01-30T08:45:59;21.13;;;14.30;;
57663;SDS011;43493;53.098;6.064;2024-01-30T08:48:26;17.00;;;14.43;;
57663;SDS011;43493;53.098;6.064;2024-01-30T08:50:52;19.10;;;14.53;;
57663;SDS011;43493;53.098;6.064;2024-01-30T08:53:18;20.17;;;14.63;;
57663;SDS011;43493;53.098;6.064;2024-01-30T08:55:44;18.50;;;14.20;;
57663;SDS011;43493;53.098;6.064;2024-01-30T08:58:10;21.80;;;14.40;;
57663;SDS011;43493;53.098;6.064;2024-01-30T09:00:36;22.50;;;14.93;;
57663;SDS011;43493;53.098;6.064;2024-01-30T09:03:01;17.30;;;14.33;;
57663;SDS011;43493;53.098;6.064;2024-01-30T09:05:28;23.93;;;15.07;;
57663;SDS011;43493;53.098;6.064;2024-01-30T09:07:54;18.10;;;13.90;;
57663;SDS011;43493;53.098;6.064;2024-01-30T09:10:19;21.13;;;14.20;;
57663;SDS011;43493;53.098;6.064;2024-01-30T09:12:46;20.63;;;14.40;;
57663;SDS011;43493;53.098;6.064;2024-01-30T09:15:12;19.57;;;14.90;;
57663;SDS011;43493;53.098;6.064;2024-01-30T09:17:37;23.07;;;14.20;;
57663;SDS011;43493;53.098;6.064;2024-01-30T09:20:04;18.93;;;14.67;;
57663;SDS011;43493;53.098;6.064;2024-01-30T09:22:30;19.57;;;14.23;;
57663;SDS011;43493;53.098;6.064;2024-01-30T09:24:56;20.97;;;14.47;;
57663;SDS011;43493;53.098;6.064;2024-01-30T09:27:22;20.90;;;15.67;;
57663;SDS011;43493;53.098;6.064;2024-01-30T09:29:48;19.30;;;14.67;;
57663;SDS011;43493;53.098;6.064;2024-01-30T09:32:14;19.53;;;15.60;;
57663;SDS011;43493;53.098;6.064;2024-01-30T09:34:40;21.07;;;15.17;;
57663;SDS011;43493;53.098;6.064;2024-01-30T09:37:06;23.47;;;15.23;;
57663;SDS011;43493;53.098;6.064;2024-01-30T09:39:32;21.53;;;15.00;;
57663;SDS011;43493;53.098;6.064;2024-01-30T09:42:01;27.50;;;16.13;;
57663;SDS011;43493;53.098;6.064;2024-01-30T09:44:31;19.60;;;14.57;;
57663;SDS011;43493;53.098;6.064;2024-01-30T09:47:00;18.87;;;14.80;;
57663;SDS011;43493;53.098;6.064;2024-01-30T09:49:29;20.70;;;14.90;;
57663;SDS011;43493;53.098;6.064;2024-01-30T09:51:59;22.20;;;14.47;;
57663;SDS011;43493;53.098;6.064;2024-01-30T09:54:25;19.20;;;13.77;;
57663;SDS011;43493;53.098;6.064;2024-01-30T09:56:51;19.87;;;14.03;;
57663;SDS011;43493;53.098;6.064;2024-01-30T09:59:16;24.37;;;15.17;;
57663;SDS011;43493;53.098;6.064;2024-01-30T10:01:42;22.80;;;16.13;;
57663;SDS011;43493;53.098;6.064;2024-01-30T10:04:08;29.00;;;15.27;;
57663;SDS011;43493;53.098;6.064;2024-01-30T10:06:35;22.10;;;15.23;;
57663;SDS011;43493;53.098;6.064;2024-01-30T10:09:01;20.03;;;14.27;;
57663;SDS011;43493;53.098;6.064;2024-01-30T10:11:27;22.33;;;16.57;;
57663;SDS011;43493;53.098;6.064;2024-01-30T10:13:52;23.97;;;14.80;;
57663;SDS011;43493;53.098;6.064;2024-01-30T10:16:18;21.60;;;15.10;;
57663;SDS011;43493;53.098;6.064;2024-01-30T10:18:44;23.43;;;14.23;;
57663;SDS011;43493;53.098;6.064;2024-01-30T10:21:10;19.27;;;12.77;;
57663;SDS011;43493;53.098;6.064;2024-01-30T10:23:36;19.43;;;12.53;;
57663;SDS011;43493;53.098;6.064;2024-01-30T10:26:07;19.90;;;12.60;;
57663;SDS011;43493;53.098;6.064;2024-01-30T10:28:33;18.97;;;12.70;;
57663;SDS011;43493;53.098;6.064;2024-01-30T10:30:59;19.17;;;13.17;;
57663;SDS011;43493;53.098;6.064;2024-01-30T10:33:26;18.30;;;11.37;;
57663;SDS011;43493;53.098;6.064;2024-01-30T10:35:54;17.93;;;11.47;;
57663;SDS011;43493;53.098;6.064;2024-01-30T10:38:25;16.93;;;11.77;;
57663;SDS011;43493;53.098;6.064;2024-01-30T10:40:57;19.83;;;12.57;;
57663;SDS011;43493;53.098;6.064;2024-01-30T10:43:35;17.33;;;10.97;;
57663;SDS011;43493;53.098;6.064;2024-01-30T10:46:07;25.13;;;11.00;;
57663;SDS011;43493;53.098;6.064;2024-01-30T10:48:39;18.53;;;11.40;;
57663;SDS011;43493;53.098;6.064;2024-01-30T10:51:09;19.27;;;10.20;;
57663;SDS011;43493;53.098;6.064;2024-01-30T10:53:37;17.33;;;9.97;;
57663;SDS011;43493;53.098;6.064;2024-01-30T10:56:04;19.77;;;10.97;;
57663;SDS011;43493;53.098;6.064;2024-01-30T10:58:31;19.13;;;10.37;;
57663;SDS011;43493;53.098;6.064;2024-01-30T11:00:56;19.17;;;9.57;;
57663;SDS011;43493;53.098;6.064;2024-01-30T11:03:23;18.57;;;10.43;;
57663;SDS011;43493;53.098;6.064;2024-01-30T11:05:50;19.07;;;10.33;;
57663;SDS011;43493;53.098;6.064;2024-01-30T11:08:25;16.17;;;8.53;;
57663;SDS011;43493;53.098;6.064;2024-01-30T11:10:56;21.03;;;8.70;;
57663;SDS011;43493;53.098;6.064;2024-01-30T11:13:27;14.80;;;7.20;;
57663;SDS011;43493;53.098;6.064;2024-01-30T11:15:54;16.57;;;5.83;;
57663;SDS011;43493;53.098;6.064;2024-01-30T11:18:26;21.50;;;6.00;;
57663;SDS011;43493;53.098;6.064;2024-01-30T11:20:58;14.30;;;5.25;;
57663;SDS011;43493;53.098;6.064;2024-01-30T11:23:30;10.33;;;3.43;;
57663;SDS011;43493;53.098;6.064;2024-01-30T11:25:58;14.10;;;5.37;;
57663;SDS011;43493;53.098;6.064;2024-01-30T11:28:24;9.40;;;3.43;;
57663;SDS011;43493;53.098;6.064;2024-01-30T11:31:02;8.60;;;3.27;;
57663;SDS011;43493;53.098;6.064;2024-01-30T11:33:29;5.87;;;2.10;;
57663;SDS011;43493;53.098;6.064;2024-01-30T11:35:56;8.97;;;2.47;;
57663;SDS011;43493;53.098;6.064;2024-01-30T11:38:27;10.10;;;2.50;;
57663;SDS011;43493;53.098;6.064;2024-01-30T11:40:54;7.77;;;2.87;;
57663;SDS011;43493;53.098;6.064;2024-01-30T11:43:23;11.47;;;2.47;;
57663;SDS011;43493;53.098;6.064;2024-01-30T11:45:49;8.37;;;2.80;;
57663;SDS011;43493;53.098;6.064;2024-01-30T11:48:15;10.53;;;3.07;;
57663;SDS011;43493;53.098;6.064;2024-01-30T11:50:41;8.43;;;2.60;;
57663;SDS011;43493;53.098;6.064;2024-01-30T11:53:06;7.27;;;2.23;;
57663;SDS011;43493;53.098;6.064;2024-01-30T11:55:33;8.40;;;3.33;;
57663;SDS011;43493;53.098;6.064;2024-01-30T11:58:00;9.80;;;2.70;;
57663;SDS011;43493;53.098;6.064;2024-01-30T12:00:26;9.13;;;2.93;;
57663;SDS011;43493;53.098;6.064;2024-01-30T12:02:53;11.13;;;6.43;;
57663;SDS011;43493;53.098;6.064;2024-01-30T12:05:25;7.03;;;2.37;;
57663;SDS011;43493;53.098;6.064;2024-01-30T12:07:51;13.87;;;2.93;;
57663;SDS011;43493;53.098;6.064;2024-01-30T12:10:18;12.00;;;2.43;;
57663;SDS011;43493;53.098;6.064;2024-01-30T12:12:48;6.90;;;2.37;;
57663;SDS011;43493;53.098;6.064;2024-01-30T12:15:15;5.73;;;2.00;;
57663;SDS011;43493;53.098;6.064;2024-01-30T12:17:41;7.57;;;1.80;;
57663;SDS011;43493;53.098;6.064;2024-01-30T12:20:07;11.03;;;2.60;;
57663;SDS011;43493;53.098;6.064;2024-01-30T12:22:42;9.37;;;2.73;;
57663;SDS011;43493;53.098;6.064;2024-01-30T12:25:12;7.93;;;1.87;;
57663;SDS011;43493;53.098;6.064;2024-01-30T12:27:39;7.57;;;2.17;;
57663;SDS011;43493;53.098;6.064;2024-01-30T12:30:07;8.73;;;2.13;;
57663;SDS011;43493;53.098;6.064;2024-01-30T12:32:37;6.17;;;1.80;;
57663;SDS011;43493;53.098;6.064;2024-01-30T12:35:12;5.63;;;1.60;;
57663;SDS011;43493;53.098;6.064;2024-01-30T12:37:38;10.80;;;1.97;;
57663;SDS011;43493;53.098;6.064;2024-01-30T12:40:05;7.77;;;1.60;;
57663;SDS011;43493;53.098;6.064;2024-01-30T12:42:35;7.60;;;1.90;;
57663;SDS011;43493;53.098;6.064;2024-01-30T12:45:04;7.40;;;1.93;;
57663;SDS011;43493;53.098;6.064;2024-01-30T12:47:31;6.63;;;1.57;;
57663;SDS011;43493;53.098;6.064;2024-01-30T12:49:57;8.03;;;2.37;;
57663;SDS011;43493;53.098;6.064;2024-01-30T12:52:23;7.07;;;1.70;;
57663;SDS011;43493;53.098;6.064;2024-01-30T12:54:49;6.03;;;1.87;;
57663;SDS011;43493;53.098;6.064;2024-01-30T12:57:15;5.47;;;1.60;;
57663;SDS011;43493;53.098;6.064;2024-01-30T12:59:42;5.83;;;1.60;;
57663;SDS011;43493;53.098;6.064;2024-01-30T13:02:12;7.00;;;2.40;;
57663;SDS011;43493;53.098;6.064;2024-01-30T13:04:38;6.57;;;2.00;;
57663;SDS011;43493;53.098;6.064;2024-01-30T13:07:05;7.50;;;2.10;;
57663;SDS011;43493;53.098;6.064;2024-01-30T13:09:31;6.37;;;1.90;;
57663;SDS011;43493;53.098;6.064;2024-01-30T13:11:57;7.40;;;2.00;;
57663;SDS011;43493;53.098;6.064;2024-01-30T13:14:24;6.57;;;1.77;;
57663;SDS011;43493;53.098;6.064;2024-01-30T13:16:49;8.47;;;2.47;;
57663;SDS011;43493;53.098;6.064;2024-01-30T13:19:16;6.80;;;2.17;;
57663;SDS011;43493;53.098;6.064;2024-01-30T13:21:42;6.93;;;1.77;;
57663;SDS011;43493;53.098;6.064;2024-01-30T13:24:08;9.00;;;2.47;;
57663;SDS011;43493;53.098;6.064;2024-01-30T13:26:34;8.07;;;2.20;;
57663;SDS011;43493;53.098;6.064;2024-01-30T13:29:00;7.70;;;2.23;;
57663;SDS011;43493;53.098;6.064;2024-01-30T13:31:26;9.93;;;2.80;;
57663;SDS011;43493;53.098;6.064;2024-01-30T13:33:53;7.23;;;2.10;;
57663;SDS011;43493;53.098;6.064;2024-01-30T13:36:19;11.30;;;2.50;;
57663;SDS011;43493;53.098;6.064;2024-01-30T13:38:46;8.90;;;2.57;;
57663;SDS011;43493;53.098;6.064;2024-01-30T13:41:12;5.97;;;2.20;;
57663;SDS011;43493;53.098;6.064;2024-01-30T13:43:37;8.33;;;2.40;;
57663;SDS011;43493;53.098;6.064;2024-01-30T13:46:03;7.40;;;2.30;;
57663;SDS011;43493;53.098;6.064;2024-01-30T13:48:29;9.53;;;2.90;;
57663;SDS011;43493;53.098;6.064;2024-01-30T13:50:56;10.47;;;2.33;;
57663;SDS011;43493;53.098;6.064;2024-01-30T13:53:21;8.13;;;3.10;;
57663;SDS011;43493;53.098;6.064;2024-01-30T13:55:47;10.10;;;2.70;;
57663;SDS011;43493;53.098;6.064;2024-01-30T13:58:13;8.73;;;2.80;;
57663;SDS011;43493;53.098;6.064;2024-01-30T14:00:39;8.83;;;2.50;;
57663;SDS011;43493;53.098;6.064;2024-01-30T14:03:04;9.37;;;3.53;;
57663;SDS011;43493;53.098;6.064;2024-01-30T14:05:30;11.40;;;3.50;;
57663;SDS011;43493;53.098;6.064;2024-01-30T14:07:56;11.13;;;3.47;;
57663;SDS011;43493;53.098;6.064;2024-01-30T14:10:23;11.20;;;3.73;;
57663;SDS011;43493;53.098;6.064;2024-01-30T14:12:49;10.10;;;4.07;;
57663;SDS011;43493;53.098;6.064;2024-01-30T14:15:14;10.37;;;3.67;;
57663;SDS011;43493;53.098;6.064;2024-01-30T14:17:43;14.63;;;4.43;;
57663;SDS011;43493;53.098;6.064;2024-01-30T14:20:10;12.90;;;3.87;;
57663;SDS011;43493;53.098;6.064;2024-01-30T14:22:36;10.77;;;3.93;;